sensor_id;sensor_type;location;lat;lon;timestamp;pressure;altitude;pressure_sealevel;temperature;humidity
47240;BME280;32978;53.586;10.052;2023-03-23T00:04:37;100272.25;;;9.56;100.00
47240;BME280;32978;53.586;10.052;2023-03-23T00:22:49;100279.03;;;9.41;100.00
47240;BME280;32978;53.586;10.052;2023-03-23T00:29:04;100267.94;;;9.37;100.00
47240;BME280;32978;53.586;10.052;2023-03-23T00:33:59;100253.00;;;9.35;100.00
47240;BME280;32978;53.586;10.052;2023-03-23T00:38:59;100257.34;;;9.36;100.00
47240;BME280;32978;53.586;10.052;2023-03-23T00:43:56;100246.75;;;9.34;100.00
47240;BME280;32978;53.586;10.052;2023-03-23T00:48:52;100233.13;;;9.34;100.00
47240;BME280;32978;53.586;10.052;2023-03-23T00:53:47;100225.56;;;9.31;100.00
47240;BME280;32978;53.586;10.052;2023-03-23T00:58:43;100203.28;;;9.29;100.00
47240;BME280;32978;53.586;10.052;2023-03-23T01:03:41;100206.00;;;9.29;100.00
47240;BME280;32978;53.586;10.052;2023-03-23T01:08:39;100204.38;;;9.28;100.00
47240;BME280;32978;53.586;10.052;2023-03-23T01:13:41;100195.72;;;9.26;100.00
47240;BME280;32978;53.586;10.052;2023-03-23T01:18:37;100178.41;;;9.22;100.00
47240;BME280;32978;53.586;10.052;2023-03-23T01:23:34;100165.88;;;9.21;100.00
47240;BME280;32978;53.586;10.052;2023-03-23T01:28:34;100173.56;;;9.19;100.00
47240;BME280;32978;53.586;10.052;2023-03-23T01:33:31;100168.94;;;9.19;100.00
47240;BME280;32978;53.586;10.052;2023-03-23T01:38:30;100169.09;;;9.23;100.00
47240;BME280;32978;53.586;10.052;2023-03-23T01:43:29;100160.09;;;9.22;100.00
47240;BME280;32978;53.586;10.052;2023-03-23T01:48:28;100147.91;;;9.20;100.00
47240;BME280;32978;53.586;10.052;2023-03-23T01:53:31;100136.22;;;9.19;100.00
47240;BME280;32978;53.586;10.052;2023-03-23T01:58:32;100138.59;;;9.21;100.00
47240;BME280;32978;53.586;10.052;2023-03-23T02:03:29;100129.31;;;9.22;100.00
47240;BME280;32978;53.586;10.052;2023-03-23T02:08:27;100114.69;;;9.18;100.00
47240;BME280;32978;53.586;10.052;2023-03-23T02:13:24;100118.56;;;9.17;100.00
47240;BME280;32978;53.586;10.052;2023-03-23T02:18:42;100121.44;;;9.20;100.00
47240;BME280;32978;53.586;10.052;2023-03-23T02:24:00;100115.31;;;9.23;100.00
47240;BME280;32978;53.586;10.052;2023-03-23T02:29:25;100112.28;;;9.25;100.00
47240;BME280;32978;53.586;10.052;2023-03-23T02:34:28;100101.53;;;9.29;100.00
47240;BME280;32978;53.586;10.052;2023-03-23T02:39:37;100097.34;;;9.31;100.00
47240;BME280;32978;53.586;10.052;2023-03-23T02:44:39;100092.38;;;9.33;100.00
47240;BME280;32978;53.586;10.052;2023-03-23T02:49:37;100090.13;;;9.35;100.00
47240;BME280;32978;53.586;10.052;2023-03-23T02:54:35;100074.69;;;9.39;100.00
47240;BME280;32978;53.586;10.052;2023-03-23T02:59:32;100081.75;;;9.40;100.00
47240;BME280;32978;53.586;10.052;2023-03-23T03:04:30;100074.19;;;9.46;100.00
47240;BME280;32978;53.586;10.052;2023-03-23T03:09:45;100060.22;;;9.47;100.00
47240;BME280;32978;53.586;10.052;2023-03-23T03:14:53;100056.38;;;9.48;100.00
47240;BME280;32978;53.586;10.052;2023-03-23T03:19:56;100047.53;;;9.52;100.00
47240;BME280;32978;53.586;10.052;2023-03-23T03:24:52;100049.63;;;9.55;100.00
47240;BME280;32978;53.586;10.052;2023-03-23T03:29:55;100006.75;;;9.55;100.00
47240;BME280;32978;53.586;10.052;2023-03-23T03:34:52;100010.44;;;9.51;100.00
47240;BME280;32978;53.586;10.052;2023-03-23T03:39:47;100006.94;;;9.50;100.00
47240;BME280;32978;53.586;10.052;2023-03-23T03:44:43;100002.06;;;9.56;100.00
47240;BME280;32978;53.586;10.052;2023-03-23T03:49:38;100001.44;;;9.59;100.00
47240;BME280;32978;53.586;10.052;2023-03-23T03:54:33;100013.94;;;9.60;100.00
47240;BME280;32978;53.586;10.052;2023-03-23T03:59:29;100029.66;;;9.63;100.00
47240;BME280;32978;53.586;10.052;2023-03-23T04:04:25;100019.69;;;9.67;100.00
47240;BME280;32978;53.586;10.052;2023-03-23T04:09:21;100005.84;;;9.72;100.00
47240;BME280;32978;53.586;10.052;2023-03-23T04:14:16;100006.78;;;9.76;100.00
47240;BME280;32978;53.586;10.052;2023-03-23T04:19:12;100011.59;;;9.79;100.00
47240;BME280;32978;53.586;10.052;2023-03-23T04:24:07;100016.25;;;9.79;100.00
47240;BME280;32978;53.586;10.052;2023-03-23T04:29:02;100022.16;;;9.89;100.00
47240;BME280;32978;53.586;10.052;2023-03-23T04:33:58;100004.84;;;9.77;100.00
47240;BME280;32978;53.586;10.052;2023-03-23T04:38:55;100027.69;;;9.72;100.00
47240;BME280;32978;53.586;10.052;2023-03-23T04:43:51;100008.78;;;9.67;100.00
47240;BME280;32978;53.586;10.052;2023-03-23T04:48:48;100015.84;;;9.68;100.00
47240;BME280;32978;53.586;10.052;2023-03-23T04:53:43;100007.00;;;9.71;100.00
47240;BME280;32978;53.586;10.052;2023-03-23T04:58:39;100006.78;;;9.76;100.00
47240;BME280;32978;53.586;10.052;2023-03-23T05:03:35;99996.53;;;9.73;100.00
47240;BME280;32978;53.586;10.052;2023-03-23T05:08:31;99996.03;;;9.80;100.00
47240;BME280;32978;53.586;10.052;2023-03-23T05:13:28;100007.34;;;9.90;100.00
47240;BME280;32978;53.586;10.052;2023-03-23T05:18:23;99997.88;;;9.88;100.00
47240;BME280;32978;53.586;10.052;2023-03-23T05:23:19;99988.50;;;9.98;100.00
47240;BME280;32978;53.586;10.052;2023-03-23T05:28:19;99984.34;;;10.00;100.00
47240;BME280;32978;53.586;10.052;2023-03-23T05:33:17;100006.97;;;10.01;100.00
47240;BME280;32978;53.586;10.052;2023-03-23T05:38:13;99991.53;;;10.05;100.00
47240;BME280;32978;53.586;10.052;2023-03-23T05:43:10;100004.06;;;10.06;100.00
47240;BME280;32978;53.586;10.052;2023-03-23T05:48:06;99995.13;;;9.97;100.00
47240;BME280;32978;53.586;10.052;2023-03-23T05:53:01;99977.16;;;9.96;100.00
47240;BME280;32978;53.586;10.052;2023-03-23T05:57:58;99983.25;;;9.93;100.00
47240;BME280;32978;53.586;10.052;2023-03-23T06:02:55;99978.19;;;9.82;100.00
47240;BME280;32978;53.586;10.052;2023-03-23T06:07:52;99987.97;;;9.83;100.00
47240;BME280;32978;53.586;10.052;2023-03-23T06:12:49;99978.81;;;9.79;100.00
47240;BME280;32978;53.586;10.052;2023-03-23T06:17:45;99982.03;;;9.81;100.00
47240;BME280;32978;53.586;10.052;2023-03-23T06:22:41;99981.22;;;9.81;100.00
47240;BME280;32978;53.586;10.052;2023-03-23T06:27:36;99956.72;;;9.72;100.00
47240;BME280;32978;53.586;10.052;2023-03-23T06:32:32;99984.00;;;9.72;100.00
47240;BME280;32978;53.586;10.052;2023-03-23T06:37:29;99984.44;;;9.83;100.00
47240;BME280;32978;53.586;10.052;2023-03-23T06:42:24;99982.03;;;9.81;100.00
47240;BME280;32978;53.586;10.052;2023-03-23T06:47:20;99982.19;;;10.06;100.00
47240;BME280;32978;53.586;10.052;2023-03-23T06:52:15;99991.13;;;10.15;100.00
47240;BME280;32978;53.586;10.052;2023-03-23T06:57:11;99980.63;;;10.26;100.00
47240;BME280;32978;53.586;10.052;2023-03-23T07:02:09;99973.97;;;10.36;100.00
47240;BME280;32978;53.586;10.052;2023-03-23T07:07:10;99969.88;;;10.42;100.00
47240;BME280;32978;53.586;10.052;2023-03-23T07:12:06;99970.34;;;10.44;100.00
47240;BME280;32978;53.586;10.052;2023-03-23T07:17:02;99963.56;;;10.50;100.00
47240;BME280;32978;53.586;10.052;2023-03-23T07:21:58;99972.81;;;10.58;100.00
47240;BME280;32978;53.586;10.052;2023-03-23T07:26:53;99987.66;;;10.69;100.00
47240;BME280;32978;53.586;10.052;2023-03-23T07:31:49;99982.59;;;10.80;100.00
47240;BME280;32978;53.586;10.052;2023-03-23T07:36:45;99980.34;;;10.94;100.00
47240;BME280;32978;53.586;10.052;2023-03-23T07:41:41;99975.13;;;11.13;100.00
47240;BME280;32978;53.586;10.052;2023-03-23T07:46:36;99978.22;;;11.36;100.00
47240;BME280;32978;53.586;10.052;2023-03-23T07:51:32;99996.84;;;11.31;100.00
47240;BME280;32978;53.586;10.052;2023-03-23T07:56:28;100003.31;;;10.81;100.00
47240;BME280;32978;53.586;10.052;2023-03-23T08:01:23;100014.22;;;10.68;100.00
47240;BME280;32978;53.586;10.052;2023-03-23T08:06:19;100010.06;;;10.62;100.00
47240;BME280;32978;53.586;10.052;2023-03-23T08:11:15;100023.66;;;10.71;100.00
47240;BME280;32978;53.586;10.052;2023-03-23T08:16:12;100018.47;;;10.57;100.00
47240;BME280;32978;53.586;10.052;2023-03-23T08:21:08;100024.38;;;10.47;100.00
47240;BME280;32978;53.586;10.052;2023-03-23T08:26:07;100031.75;;;10.46;100.00
47240;BME280;32978;53.586;10.052;2023-03-23T08:31:11;100093.06;;;10.37;100.00
47240;BME280;32978;53.586;10.052;2023-03-23T08:36:06;100081.44;;;9.89;100.00
47240;BME280;32978;53.586;10.052;2023-03-23T08:41:05;100058.47;;;9.81;100.00
47240;BME280;32978;53.586;10.052;2023-03-23T08:46:01;100047.44;;;9.78;100.00
47240;BME280;32978;53.586;10.052;2023-03-23T08:51:03;100056.66;;;9.94;100.00
47240;BME280;32978;53.586;10.052;2023-03-23T08:56:06;100074.88;;;10.11;100.00
47240;BME280;32978;53.586;10.052;2023-03-23T09:01:03;100063.44;;;10.18;100.00
47240;BME280;32978;53.586;10.052;2023-03-23T09:06:02;100063.94;;;10.41;100.00
47240;BME280;32978;53.586;10.052;2023-03-23T09:11:08;100069.34;;;10.70;100.00
47240;BME280;32978;53.586;10.052;2023-03-23T09:16:05;100073.28;;;10.82;100.00
47240;BME280;32978;53.586;10.052;2023-03-23T09:21:01;100082.34;;;10.52;100.00
47240;BME280;32978;53.586;10.052;2023-03-23T09:26:00;100069.69;;;10.48;100.00
47240;BME280;32978;53.586;10.052;2023-03-23T09:30:55;100068.75;;;10.44;100.00
47240;BME280;32978;53.586;10.052;2023-03-23T09:35:54;100071.31;;;10.49;100.00
47240;BME280;32978;53.586;10.052;2023-03-23T09:46:22;100095.44;;;10.47;100.00
47240;BME280;32978;53.586;10.052;2023-03-23T09:51:41;100085.03;;;10.61;100.00
47240;BME280;32978;53.586;10.052;2023-03-23T09:56:37;100093.81;;;10.67;100.00
47240;BME280;32978;53.586;10.052;2023-03-23T10:01:42;100096.66;;;11.12;100.00
47240;BME280;32978;53.586;10.052;2023-03-23T10:06:39;100100.59;;;11.36;100.00
47240;BME280;32978;53.586;10.052;2023-03-23T10:11:56;100112.09;;;11.29;100.00
47240;BME280;32978;53.586;10.052;2023-03-23T10:22:10;100110.47;;;11.62;100.00
47240;BME280;32978;53.586;10.052;2023-03-23T10:32:34;100130.28;;;11.46;100.00
47240;BME280;32978;53.586;10.052;2023-03-23T10:37:32;100109.53;;;11.57;100.00
47240;BME280;32978;53.586;10.052;2023-03-23T10:42:33;100117.84;;;11.94;100.00
47240;BME280;32978;53.586;10.052;2023-03-23T10:47:31;100135.22;;;11.98;100.00
47240;BME280;32978;53.586;10.052;2023-03-23T10:52:35;100144.34;;;11.57;100.00
47240;BME280;32978;53.586;10.052;2023-03-23T10:57:33;100141.75;;;11.61;100.00
47240;BME280;32978;53.586;10.052;2023-03-23T11:02:29;100142.66;;;11.65;100.00
47240;BME280;32978;53.586;10.052;2023-03-23T11:07:28;100137.09;;;11.86;100.00
47240;BME280;32978;53.586;10.052;2023-03-23T11:12:24;100146.63;;;12.00;100.00
47240;BME280;32978;53.586;10.052;2023-03-23T11:17:23;100144.91;;;12.08;100.00
47240;BME280;32978;53.586;10.052;2023-03-23T11:22:28;100142.97;;;12.33;100.00
47240;BME280;32978;53.586;10.052;2023-03-23T11:27:24;100146.63;;;12.13;100.00
47240;BME280;32978;53.586;10.052;2023-03-23T11:32:24;100162.59;;;11.98;100.00
47240;BME280;32978;53.586;10.052;2023-03-23T11:37:43;100135.66;;;11.88;100.00
47240;BME280;32978;53.586;10.052;2023-03-23T11:42:56;100161.59;;;12.03;100.00
47240;BME280;32978;53.586;10.052;2023-03-23T11:48:13;100151.94;;;11.85;100.00
47240;BME280;32978;53.586;10.052;2023-03-23T11:53:27;100159.06;;;12.10;100.00
47240;BME280;32978;53.586;10.052;2023-03-23T11:58:25;100175.34;;;11.82;100.00
47240;BME280;32978;53.586;10.052;2023-03-23T12:29:33;100214.50;;;10.86;100.00
47240;BME280;32978;53.586;10.052;2023-03-23T12:34:45;100196.53;;;10.77;100.00
47240;BME280;32978;53.586;10.052;2023-03-23T12:40:05;100196.75;;;10.92;100.00
47240;BME280;32978;53.586;10.052;2023-03-23T12:50:30;100190.81;;;11.11;100.00
47240;BME280;32978;53.586;10.052;2023-03-23T12:55:39;100186.53;;;11.23;100.00
47240;BME280;32978;53.586;10.052;2023-03-23T13:01:32;100192.41;;;11.33;100.00
47240;BME280;32978;53.586;10.052;2023-03-23T13:06:24;100179.28;;;13.92;100.00
47240;BME280;32978;53.586;10.052;2023-03-23T13:11:31;100122.22;;;15.92;100.00
47240;BME280;32978;53.586;10.052;2023-03-23T13:16:31;100119.06;;;17.00;100.00
47240;BME280;32978;53.586;10.052;2023-03-23T13:21:34;100134.03;;;14.37;100.00
47240;BME280;32978;53.586;10.052;2023-03-23T13:26:38;100122.06;;;16.88;100.00
47240;BME280;32978;53.586;10.052;2023-03-23T13:31:36;100106.75;;;15.65;100.00
47240;BME280;32978;53.586;10.052;2023-03-23T13:36:44;100111.81;;;15.40;100.00
47240;BME280;32978;53.586;10.052;2023-03-23T13:42:32;100108.66;;;14.99;100.00
47240;BME280;32978;53.586;10.052;2023-03-23T13:47:08;100124.63;;;13.43;100.00
47240;BME280;32978;53.586;10.052;2023-03-23T13:52:16;100122.72;;;13.03;100.00
47240;BME280;32978;53.586;10.052;2023-03-23T13:57:24;100103.84;;;13.01;100.00
47240;BME280;32978;53.586;10.052;2023-03-23T14:02:38;100131.06;;;12.66;100.00
47240;BME280;32978;53.586;10.052;2023-03-23T14:07:52;100183.19;;;11.38;100.00
47240;BME280;32978;53.586;10.052;2023-03-23T14:12:50;100232.00;;;9.35;100.00
47240;BME280;32978;53.586;10.052;2023-03-23T14:17:48;100258.88;;;8.93;100.00
47240;BME280;32978;53.586;10.052;2023-03-23T14:22:45;100234.03;;;8.86;100.00
47240;BME280;32978;53.586;10.052;2023-03-23T14:27:41;100208.09;;;9.15;100.00
47240;BME280;32978;53.586;10.052;2023-03-23T14:32:40;100213.34;;;9.55;100.00
47240;BME280;32978;53.586;10.052;2023-03-23T14:37:37;100195.63;;;11.81;100.00
47240;BME280;32978;53.586;10.052;2023-03-23T14:42:34;100184.59;;;13.00;100.00
47240;BME280;32978;53.586;10.052;2023-03-23T14:47:34;100163.59;;;13.33;100.00
47240;BME280;32978;53.586;10.052;2023-03-23T14:52:34;100179.06;;;13.53;100.00
47240;BME280;32978;53.586;10.052;2023-03-23T14:57:30;100186.00;;;13.79;100.00
47240;BME280;32978;53.586;10.052;2023-03-23T15:02:34;100173.38;;;13.46;100.00
47240;BME280;32978;53.586;10.052;2023-03-23T15:07:33;100175.34;;;13.61;100.00
47240;BME280;32978;53.586;10.052;2023-03-23T15:12:30;100202.03;;;12.18;100.00
47240;BME280;32978;53.586;10.052;2023-03-23T15:17:28;100217.94;;;11.58;100.00
47240;BME280;32978;53.586;10.052;2023-03-23T15:22:28;100210.56;;;11.38;100.00
47240;BME280;32978;53.586;10.052;2023-03-23T15:27:33;100230.94;;;11.07;100.00
47240;BME280;32978;53.586;10.052;2023-03-23T15:32:31;100242.47;;;11.13;100.00
47240;BME280;32978;53.586;10.052;2023-03-23T15:37:43;100233.53;;;11.25;100.00
47240;BME280;32978;53.586;10.052;2023-03-23T15:42:39;100237.44;;;12.36;100.00
47240;BME280;32978;53.586;10.052;2023-03-23T15:47:37;100233.69;;;12.65;100.00
47240;BME280;32978;53.586;10.052;2023-03-23T15:52:39;100225.44;;;12.53;100.00
47240;BME280;32978;53.586;10.052;2023-03-23T15:57:34;100224.44;;;11.87;100.00
47240;BME280;32978;53.586;10.052;2023-03-23T16:02:30;100232.72;;;11.45;100.00
47240;BME280;32978;53.586;10.052;2023-03-23T16:07:29;100249.47;;;11.23;100.00
47240;BME280;32978;53.586;10.052;2023-03-23T16:12:26;100256.22;;;11.25;100.00
47240;BME280;32978;53.586;10.052;2023-03-23T16:17:22;100262.09;;;11.15;100.00
47240;BME280;32978;53.586;10.052;2023-03-23T16:22:18;100280.28;;;11.11;100.00
47240;BME280;32978;53.586;10.052;2023-03-23T16:27:15;100274.88;;;11.02;100.00
47240;BME280;32978;53.586;10.052;2023-03-23T16:32:12;100253.34;;;11.97;100.00
47240;BME280;32978;53.586;10.052;2023-03-23T16:37:10;100259.91;;;12.05;100.00
47240;BME280;32978;53.586;10.052;2023-03-23T16:42:07;100255.13;;;11.59;100.00
47240;BME280;32978;53.586;10.052;2023-03-23T16:47:03;100268.72;;;11.14;100.00
47240;BME280;32978;53.586;10.052;2023-03-23T16:52:00;100255.28;;;11.00;100.00
47240;BME280;32978;53.586;10.052;2023-03-23T16:56:56;100225.88;;;10.88;100.00
47240;BME280;32978;53.586;10.052;2023-03-23T17:01:53;100220.13;;;10.81;100.00
47240;BME280;32978;53.586;10.052;2023-03-23T17:06:49;100214.78;;;10.64;100.00
47240;BME280;32978;53.586;10.052;2023-03-23T17:11:47;100232.22;;;10.50;100.00
47240;BME280;32978;53.586;10.052;2023-03-23T17:16:44;100239.31;;;10.51;100.00
47240;BME280;32978;53.586;10.052;2023-03-23T17:21:41;100246.34;;;10.52;100.00
47240;BME280;32978;53.586;10.052;2023-03-23T17:26:38;100252.13;;;10.60;100.00
47240;BME280;32978;53.586;10.052;2023-03-23T17:31:35;100252.91;;;10.60;100.00
47240;BME280;32978;53.586;10.052;2023-03-23T17:36:32;100258.09;;;10.53;100.00
47240;BME280;32978;53.586;10.052;2023-03-23T17:41:28;100263.25;;;10.46;100.00
47240;BME280;32978;53.586;10.052;2023-03-23T17:46:26;100272.50;;;10.15;100.00
47240;BME280;32978;53.586;10.052;2023-03-23T17:51:22;100283.94;;;10.00;100.00
47240;BME280;32978;53.586;10.052;2023-03-23T17:56:19;100285.25;;;9.94;100.00
47240;BME280;32978;53.586;10.052;2023-03-23T18:01:16;100297.81;;;9.77;100.00
47240;BME280;32978;53.586;10.052;2023-03-23T18:06:13;100289.44;;;9.65;100.00
47240;BME280;32978;53.586;10.052;2023-03-23T18:11:09;100293.00;;;9.57;100.00
47240;BME280;32978;53.586;10.052;2023-03-23T18:16:07;100301.97;;;9.48;100.00
47240;BME280;32978;53.586;10.052;2023-03-23T18:21:06;100307.09;;;9.41;100.00
47240;BME280;32978;53.586;10.052;2023-03-23T18:26:06;100329.25;;;9.31;100.00
47240;BME280;32978;53.586;10.052;2023-03-23T18:31:15;100311.91;;;9.27;100.00
47240;BME280;32978;53.586;10.052;2023-03-23T18:36:15;100318.50;;;9.26;100.00
47240;BME280;32978;53.586;10.052;2023-03-23T18:41:15;100315.28;;;9.24;100.00
47240;BME280;32978;53.586;10.052;2023-03-23T18:46:12;100319.44;;;9.21;100.00
47240;BME280;32978;53.586;10.052;2023-03-23T18:51:10;100331.50;;;9.29;100.00
47240;BME280;32978;53.586;10.052;2023-03-23T18:56:11;100322.31;;;9.16;100.00
47240;BME280;32978;53.586;10.052;2023-03-23T19:01:15;100318.13;;;9.19;100.00
47240;BME280;32978;53.586;10.052;2023-03-23T19:06:22;100315.06;;;9.12;100.00
47240;BME280;32978;53.586;10.052;2023-03-23T19:11:24;100325.19;;;9.11;100.00
47240;BME280;32978;53.586;10.052;2023-03-23T19:16:25;100328.84;;;8.98;100.00
47240;BME280;32978;53.586;10.052;2023-03-23T19:21:22;100325.47;;;8.92;100.00
47240;BME280;32978;53.586;10.052;2023-03-23T19:26:31;100319.81;;;8.80;100.00
47240;BME280;32978;53.586;10.052;2023-03-23T19:31:37;100318.03;;;8.84;100.00
47240;BME280;32978;53.586;10.052;2023-03-23T19:36:44;100323.03;;;8.82;100.00
47240;BME280;32978;53.586;10.052;2023-03-23T19:42:03;100322.44;;;9.02;100.00
47240;BME280;32978;53.586;10.052;2023-03-23T19:47:00;100327.59;;;9.13;100.00
47240;BME280;32978;53.586;10.052;2023-03-23T19:51:59;100325.69;;;9.22;100.00
47240;BME280;32978;53.586;10.052;2023-03-23T19:57:05;100323.47;;;9.24;100.00
47240;BME280;32978;53.586;10.052;2023-03-23T20:02:12;100316.69;;;9.13;100.00
47240;BME280;32978;53.586;10.052;2023-03-23T20:07:20;100312.50;;;9.06;100.00
47240;BME280;32978;53.586;10.052;2023-03-23T20:12:17;100309.13;;;9.01;100.00
47240;BME280;32978;53.586;10.052;2023-03-23T20:17:13;100300.91;;;8.92;100.00
47240;BME280;32978;53.586;10.052;2023-03-23T20:22:10;100292.91;;;8.87;100.00
47240;BME280;32978;53.586;10.052;2023-03-23T20:27:06;100301.38;;;8.85;100.00
47240;BME280;32978;53.586;10.052;2023-03-23T20:32:03;100303.16;;;8.90;100.00
47240;BME280;32978;53.586;10.052;2023-03-23T20:37:00;100303.66;;;8.92;100.00
47240;BME280;32978;53.586;10.052;2023-03-23T20:42:00;100294.22;;;8.98;100.00
47240;BME280;32978;53.586;10.052;2023-03-23T20:47:06;100283.63;;;9.05;100.00
47240;BME280;32978;53.586;10.052;2023-03-23T20:52:04;100285.22;;;9.06;100.00
47240;BME280;32978;53.586;10.052;2023-03-23T20:57:01;100275.28;;;9.11;100.00
47240;BME280;32978;53.586;10.052;2023-03-23T21:01:58;100284.59;;;9.10;100.00
47240;BME280;32978;53.586;10.052;2023-03-23T21:06:54;100272.09;;;9.09;100.00
47240;BME280;32978;53.586;10.052;2023-03-23T21:11:51;100276.56;;;9.04;100.00
47240;BME280;32978;53.586;10.052;2023-03-23T21:16:48;100278.00;;;9.02;100.00
47240;BME280;32978;53.586;10.052;2023-03-23T21:21:45;100270.31;;;9.04;100.00
47240;BME280;32978;53.586;10.052;2023-03-23T21:26:53;100270.78;;;8.97;100.00
47240;BME280;32978;53.586;10.052;2023-03-23T21:31:50;100271.75;;;9.01;100.00
47240;BME280;32978;53.586;10.052;2023-03-23T21:37:02;100277.19;;;9.01;100.00
47240;BME280;32978;53.586;10.052;2023-03-23T21:41:59;100254.13;;;9.08;100.00
47240;BME280;32978;53.586;10.052;2023-03-23T21:47:00;100253.47;;;9.11;100.00
47240;BME280;32978;53.586;10.052;2023-03-23T21:51:57;100239.34;;;9.09;100.00
47240;BME280;32978;53.586;10.052;2023-03-23T21:56:53;100247.53;;;9.09;100.00
47240;BME280;32978;53.586;10.052;2023-03-23T22:01:50;100238.09;;;9.15;100.00
47240;BME280;32978;53.586;10.052;2023-03-23T22:06:47;100230.22;;;9.22;100.00
47240;BME280;32978;53.586;10.052;2023-03-23T22:11:44;100224.59;;;9.18;100.00
47240;BME280;32978;53.586;10.052;2023-03-23T22:16:41;100218.03;;;9.11;100.00
47240;BME280;32978;53.586;10.052;2023-03-23T22:21:38;100206.63;;;9.09;100.00
47240;BME280;32978;53.586;10.052;2023-03-23T22:26:34;100208.56;;;9.17;100.00
47240;BME280;32978;53.586;10.052;2023-03-23T22:31:33;100197.00;;;9.20;100.00
47240;BME280;32978;53.586;10.052;2023-03-23T22:36:30;100184.16;;;9.12;100.00
47240;BME280;32978;53.586;10.052;2023-03-23T22:41:32;100175.03;;;9.08;100.00
47240;BME280;32978;53.586;10.052;2023-03-23T22:46:29;100157.53;;;9.09;100.00
47240;BME280;32978;53.586;10.052;2023-03-23T22:51:26;100158.69;;;9.08;100.00
47240;BME280;32978;53.586;10.052;2023-03-23T22:56:23;100152.25;;;9.12;100.00
47240;BME280;32978;53.586;10.052;2023-03-23T23:01:21;100146.94;;;9.16;100.00
47240;BME280;32978;53.586;10.052;2023-03-23T23:06:19;100128.34;;;9.18;100.00
47240;BME280;32978;53.586;10.052;2023-03-23T23:11:19;100123.84;;;9.22;100.00
47240;BME280;32978;53.586;10.052;2023-03-23T23:16:18;100118.88;;;9.24;100.00
47240;BME280;32978;53.586;10.052;2023-03-23T23:21:21;100108.91;;;9.28;100.00
47240;BME280;32978;53.586;10.052;2023-03-23T23:26:18;100094.63;;;9.31;100.00
47240;BME280;32978;53.586;10.052;2023-03-23T23:36:14;100072.31;;;9.29;100.00
47240;BME280;32978;53.586;10.052;2023-03-23T23:41:10;100082.09;;;9.30;100.00
47240;BME280;32978;53.586;10.052;2023-03-23T23:46:07;100065.25;;;9.28;100.00
47240;BME280;32978;53.586;10.052;2023-03-23T23:51:04;100068.81;;;9.29;100.00
47240;BME280;32978;53.586;10.052;2023-03-23T23:56:02;100061.88;;;9.31;100.00
